Time;durP1;ratioP1;P1;durP2;ratioP2;P2;SDS_P1;SDS_P2;PMS_P1;PMS_P2;Temp;Humidity;BMP_temperature;BMP_pressure;BME280_temperature;BME280_humidity;BME280_pressure;Samples;Min_cycle;Max_cycle;Signal;HPM_P1;HPM_P2
2022/10/23 00:01:30;;;;;;;9.30;2.42;;;13.80;99.90;;;;;;5073537;28;20435;-72
2022/10/23 00:03:58;;;;;;;13.65;3.53;;;13.90;99.90;;;;;;5073531;28;20050;-71
2022/10/23 00:06:26;;;;;;;7.32;2.90;;;13.90;99.90;;;;;;5073595;28;20087;-72
2022/10/23 00:08:52;;;;;;;10.00;3.05;;;13.90;99.90;;;;;;5073221;28;20032;-72
2022/10/23 00:11:21;;;;;;;11.00;3.10;;;13.90;99.90;;;;;;5072020;28;20046;-72
2022/10/23 00:13:47;;;;;;;11.10;2.70;;;13.80;99.90;;;;;;5073225;28;20043;-72
2022/10/23 00:16:13;;;;;;;18.25;4.07;;;13.80;99.90;;;;;;5073232;28;20029;-72
2022/10/23 00:18:40;;;;;;;7.18;2.60;;;13.70;99.90;;;;;;5073159;28;20067;-72
2022/10/23 00:21:09;;;;;;;11.60;2.72;;;13.70;99.90;;;;;;5073052;28;20025;-72
2022/10/23 00:23:36;;;;;;;8.02;2.80;;;13.70;99.90;;;;;;5073472;28;20025;-72
2022/10/23 00:26:03;;;;;;;11.85;2.80;;;13.70;99.90;;;;;;5073086;28;20025;-72
2022/10/23 00:28:29;;;;;;;6.32;2.58;;;13.70;99.90;;;;;;5073035;28;20028;-71
2022/10/23 00:30:55;;;;;;;6.70;2.50;;;13.70;99.90;;;;;;5071670;28;20468;-72
2022/10/23 00:33:21;;;;;;;13.68;3.03;;;13.70;99.90;;;;;;5072938;28;20067;-72
2022/10/23 00:35:47;;;;;;;9.68;2.70;;;13.60;99.90;;;;;;5071488;28;20102;-72
2022/10/23 00:38:13;;;;;;;7.15;2.50;;;13.60;99.90;;;;;;5072082;28;20107;-72
2022/10/23 00:40:41;;;;;;;9.63;2.83;;;13.60;99.90;;;;;;5073320;28;20524;-72
2022/10/23 00:43:20;;;;;;;10.30;3.03;;;13.60;99.90;;;;;;5073511;28;20080;-72
2022/10/23 00:45:46;;;;;;;11.30;3.03;;;13.60;99.90;;;;;;5074475;28;20036;-72
2022/10/23 00:48:13;;;;;;;11.07;2.70;;;13.60;99.90;;;;;;5073343;28;20119;-72
2022/10/23 00:50:40;;;;;;;7.82;2.47;;;13.60;99.90;;;;;;5073253;28;20115;-72
2022/10/23 00:53:08;;;;;;;11.32;2.70;;;13.50;99.90;;;;;;5072528;28;20028;-72
2022/10/23 00:55:35;;;;;;;8.73;2.80;;;13.60;99.90;;;;;;5071239;28;20475;-72
2022/10/23 00:58:01;;;;;;;6.80;2.63;;;13.60;99.90;;;;;;5071246;28;20020;-72
2022/10/23 01:00:43;;;;;;;7.97;2.47;;;13.60;99.90;;;;;;5071310;28;20107;-72
2022/10/23 01:03:09;;;;;;;10.15;2.65;;;13.60;99.90;;;;;;5072392;28;20027;-72
2022/10/23 01:05:44;;;;;;;17.80;3.25;;;13.60;99.90;;;;;;5054657;28;20489;-72
2022/10/23 01:08:28;;;;;;;7.57;2.55;;;13.70;99.90;;;;;;5072327;28;20107;-72
2022/10/23 01:11:03;;;;;;;7.93;2.53;;;13.70;99.90;;;;;;5070922;28;20032;-72
2022/10/23 01:13:52;;;;;;;8.00;2.33;;;13.70;99.90;;;;;;5072289;28;20032;-72
2022/10/23 01:16:30;;;;;;;9.95;2.50;;;13.70;99.90;;;;;;5071582;28;20040;-72
2022/10/23 01:22:42;;;;;;;7.80;2.47;;;13.60;99.90;;;;;;4991077;28;20050;-67
2022/10/23 01:25:39;;;;;;;10.68;2.58;;;13.60;99.90;;;;;;4991693;28;20034;-67
2022/10/23 01:28:10;;;;;;;10.63;2.40;;;13.60;99.90;;;;;;4966862;28;20057;-67
2022/10/23 01:30:41;;;;;;;8.82;2.53;;;13.70;99.90;;;;;;4992732;28;20113;-66
2022/10/23 01:33:17;;;;;;;12.43;2.55;;;13.60;99.90;;;;;;5007802;28;20092;-67
2022/10/23 01:36:03;;;;;;;5.55;2.38;;;13.70;99.90;;;;;;5007953;28;20030;-67
2022/10/23 01:38:42;;;;;;;10.35;2.90;;;13.70;99.90;;;;;;5007819;28;20065;-67
2022/10/23 01:41:23;;;;;;;7.32;2.40;;;13.60;99.90;;;;;;4991359;28;20033;-67
2022/10/23 01:43:55;;;;;;;7.80;2.42;;;13.60;99.90;;;;;;4991370;28;20041;-67
2022/10/23 01:46:24;;;;;;;5.88;2.65;;;13.70;99.90;;;;;;4991348;28;20026;-67
2022/10/23 01:48:52;;;;;;;;;;;13.70;99.90;;;;;;4991938;28;20446;-67
2022/10/23 01:51:22;;;;;;;7.80;2.55;;;13.70;99.90;;;;;;5007509;28;20409;-67
2022/10/23 01:53:53;;;;;;;7.15;2.38;;;13.80;99.90;;;;;;4992543;28;20022;-67
2022/10/23 01:56:24;;;;;;;7.55;2.42;;;13.80;99.90;;;;;;4991160;28;20031;-67
2022/10/23 01:58:54;;;;;;;5.93;2.42;;;13.80;99.90;;;;;;4990889;28;20026;-67
2022/10/23 02:01:26;;;;;;;7.82;2.42;;;13.80;99.90;;;;;;4991078;28;20118;-67
2022/10/23 02:03:54;;;;;;;7.30;2.40;;;13.80;99.90;;;;;;4991048;28;20050;-67
2022/10/23 02:06:20;;;;;;;9.98;2.85;;;13.90;99.90;;;;;;4990774;28;20095;-67
2022/10/23 02:08:46;;;;;;;9.32;2.65;;;14.00;99.90;;;;;;4990813;28;20026;-65
2022/10/23 02:11:19;;;;;;;7.60;2.50;;;14.00;99.90;;;;;;4990877;28;20030;-65
2022/10/23 02:14:27;;;;;;;8.38;2.10;;;14.00;99.90;;;;;;4992093;28;20030;-65
2022/10/23 02:17:03;;;;;;;9.57;2.60;;;14.10;99.90;;;;;;4992021;28;20031;-66
2022/10/23 02:19:55;;;;;;;6.65;2.20;;;14.10;99.90;;;;;;4990865;28;20053;-65
2022/10/23 02:22:25;;;;;;;8.43;2.30;;;14.10;99.90;;;;;;4991858;28;20038;-65
2022/10/23 02:25:00;;;;;;;5.45;1.83;;;14.20;99.90;;;;;;4992169;28;20034;-65
2022/10/23 02:27:46;;;;;;;10.55;2.28;;;14.20;99.90;;;;;;4990607;28;20038;-65
2022/10/23 02:30:15;;;;;;;9.10;2.45;;;14.20;99.90;;;;;;4990645;28;20054;-65
2022/10/23 02:32:49;;;;;;;7.75;2.63;;;14.10;99.90;;;;;;4990811;28;20109;-65
2022/10/23 02:35:18;;;;;;;9.27;2.60;;;14.10;99.90;;;;;;4990589;28;20030;-65
2022/10/23 02:37:56;;;;;;;8.50;2.53;;;14.00;99.90;;;;;;4990736;28;20529;-65
2022/10/23 02:40:36;;;;;;;8.18;2.63;;;14.00;99.90;;;;;;4990542;28;20515;-66
2022/10/23 02:43:35;;;;;;;7.10;2.50;;;14.00;99.90;;;;;;4992217;28;20069;-65
2022/10/23 02:46:17;;;;;;;7.07;2.10;;;14.10;99.90;;;;;;4990349;28;20026;-65
2022/10/23 02:49:10;;;;;;;5.55;2.00;;;14.10;99.90;;;;;;4991754;28;20022;-65
2022/10/23 02:51:50;;;;;;;5.78;2.10;;;14.10;99.90;;;;;;4990447;28;20036;-65
2022/10/23 02:54:36;;;;;;;5.70;1.83;;;14.10;99.90;;;;;;4990459;28;20105;-65
2022/10/23 02:57:23;;;;;;;6.35;1.73;;;14.20;99.90;;;;;;4991920;28;20088;-65
2022/10/23 03:00:05;;;;;;;8.27;2.30;;;14.20;99.90;;;;;;4991804;28;20041;-65
2022/10/23 03:02:50;;;;;;;6.68;2.25;;;14.20;99.90;;;;;;4991638;28;20390;-65
2022/10/23 03:05:21;;;;;;;7.63;2.03;;;14.20;99.90;;;;;;4990444;28;20070;-65
2022/10/23 03:07:48;;;;;;;9.35;2.08;;;14.20;99.90;;;;;;4974080;28;20035;-65
2022/10/23 03:10:16;;;;;;;7.07;1.98;;;14.20;99.90;;;;;;4990478;28;20563;-65
2022/10/23 03:12:43;;;;;;;9.93;2.00;;;14.20;99.90;;;;;;4994157;28;20034;-66
2022/10/23 03:15:11;;;;;;;7.93;2.22;;;14.20;99.90;;;;;;4994060;28;20061;-65
2022/10/23 03:17:37;;;;;;;7.55;2.28;;;14.20;99.90;;;;;;4995337;28;20471;-66
2022/10/23 03:20:05;;;;;;;6.55;2.53;;;14.30;99.90;;;;;;4993745;28;20042;-65
2022/10/23 03:22:31;;;;;;;6.68;2.50;;;14.20;99.90;;;;;;4995389;28;20030;-65
2022/10/23 03:24:57;;;;;;;9.23;2.60;;;14.10;99.90;;;;;;4994109;28;20576;-65
2022/10/23 03:27:23;;;;;;;9.05;2.30;;;14.10;99.90;;;;;;4995244;28;20156;-65
2022/10/23 03:29:49;;;;;;;4.97;2.20;;;14.00;99.90;;;;;;4993734;28;20030;-65
2022/10/23 03:32:16;;;;;;;7.53;2.22;;;14.00;99.90;;;;;;4993948;28;20527;-65
2022/10/23 03:34:43;;;;;;;9.35;2.38;;;14.00;99.90;;;;;;4993833;28;20197;-65
2022/10/23 03:37:09;;;;;;;8.27;2.65;;;14.00;99.90;;;;;;4993679;28;20117;-65
2022/10/23 03:39:35;;;;;;;8.30;2.25;;;14.00;99.90;;;;;;4994882;28;20539;-65
2022/10/23 03:42:01;;;;;;;5.93;2.58;;;13.90;99.90;;;;;;4995047;28;20141;-65
2022/10/23 03:44:29;;;;;;;7.25;2.53;;;13.90;99.90;;;;;;4994949;28;20101;-66
2022/10/23 03:46:57;;;;;;;6.38;2.35;;;13.80;99.90;;;;;;4993739;28;20034;-64
2022/10/23 03:49:23;;;;;;;6.63;2.40;;;13.80;99.90;;;;;;4994814;28;20069;-65
2022/10/23 03:51:51;;;;;;;8.43;2.20;;;13.80;99.90;;;;;;4993500;28;20461;-65
2022/10/23 03:54:21;;;;;;;8.70;2.50;;;13.80;99.90;;;;;;4993732;28;20038;-65
2022/10/23 03:56:47;;;;;;;7.22;2.70;;;13.80;99.90;;;;;;4994553;28;20026;-65
2022/10/23 03:59:13;;;;;;;5.07;2.20;;;13.80;99.90;;;;;;4994753;28;20044;-64
2022/10/23 04:01:39;;;;;;;5.55;2.60;;;13.80;99.90;;;;;;4994691;28;20383;-65
2022/10/23 04:04:07;;;;;;;6.63;2.13;;;13.80;99.90;;;;;;4993580;28;20058;-65
2022/10/23 04:06:35;;;;;;;7.90;2.50;;;13.80;99.90;;;;;;4993364;28;20059;-65
2022/10/23 04:09:01;;;;;;;7.00;2.30;;;13.90;99.90;;;;;;4994730;28;20026;-65
2022/10/23 04:11:27;;;;;;;6.10;2.30;;;13.80;99.90;;;;;;4994662;28;20399;-65
2022/10/23 04:13:53;;;;;;;6.20;2.72;;;13.90;99.90;;;;;;4994674;28;20109;-65
2022/10/23 04:16:19;;;;;;;7.45;2.08;;;13.90;99.90;;;;;;4994617;28;20030;-65
2022/10/23 04:18:45;;;;;;;5.78;2.47;;;13.90;99.90;;;;;;4993276;28;20099;-65
2022/10/23 04:21:11;;;;;;;8.38;2.67;;;14.00;99.90;;;;;;4992960;28;20038;-65
2022/10/23 04:23:38;;;;;;;7.43;2.30;;;14.00;99.90;;;;;;4993040;28;20050;-65
2022/10/23 04:26:08;;;;;;;6.10;2.65;;;13.90;99.90;;;;;;4993169;28;20118;-65
2022/10/23 04:28:34;;;;;;;8.48;2.65;;;13.90;99.90;;;;;;4993064;28;20459;-65
2022/10/23 04:31:00;;;;;;;5.63;2.60;;;13.90;99.90;;;;;;4993017;28;20038;-65
2022/10/23 04:33:26;;;;;;;5.43;2.40;;;13.90;99.90;;;;;;4994353;28;20369;-65
2022/10/23 04:35:52;;;;;;;6.82;2.45;;;13.80;99.90;;;;;;4992870;28;20136;-65
2022/10/23 04:38:18;;;;;;;5.18;2.28;;;13.80;99.90;;;;;;4994292;28;20062;-66
2022/10/23 04:40:44;;;;;;;6.07;2.38;;;13.80;99.90;;;;;;4993022;28;20031;-65
2022/10/23 04:43:10;;;;;;;7.57;2.47;;;13.80;99.90;;;;;;4992813;28;20077;-65
2022/10/23 04:45:38;;;;;;;6.60;3.22;;;13.70;99.90;;;;;;4992387;28;20034;-65
2022/10/23 04:48:04;;;;;;;9.88;2.47;;;13.70;99.90;;;;;;4992587;28;20045;-65
2022/10/23 04:51:01;;;;;;;6.32;2.70;;;13.70;99.90;;;;;;4992390;28;20080;-65
2022/10/23 04:53:42;;;;;;;9.27;2.95;;;13.70;99.90;;;;;;4993490;28;20030;-65
2022/10/23 04:56:18;;;;;;;4.30;2.25;;;13.70;99.90;;;;;;4993617;28;20163;-65
2022/10/23 04:58:48;;;;;;;4.68;2.20;;;13.70;99.90;;;;;;4992179;28;20383;-65
2022/10/23 05:01:14;;;;;;;5.28;2.22;;;13.70;99.90;;;;;;4992205;28;20023;-65
2022/10/23 05:03:40;;;;;;;3.92;2.08;;;13.70;99.90;;;;;;4993102;28;20109;-65
2022/10/23 05:06:07;;;;;;;5.53;2.10;;;13.80;99.90;;;;;;4992110;28;20033;-66
2022/10/23 05:08:56;;;;;;;8.98;2.08;;;13.80;99.90;;;;;;4974081;28;20039;-65
2022/10/23 05:11:36;;;;;;;6.47;2.05;;;13.90;99.90;;;;;;4991905;28;20019;-65
2022/10/23 05:14:06;;;;;;;7.60;2.50;;;13.90;99.90;;;;;;4991960;28;20351;-65
2022/10/23 05:16:51;;;;;;;6.07;2.60;;;13.90;99.90;;;;;;4993148;28;20050;-65
2022/10/23 05:19:42;;;;;;;3.70;2.28;;;13.90;99.90;;;;;;4991857;28;20034;-65
2022/10/23 05:22:10;;;;;;;5.97;2.28;;;14.00;99.90;;;;;;4991282;28;20105;-65
2022/10/23 05:24:49;;;;;;;7.43;2.15;;;14.00;99.90;;;;;;4991840;28;20038;-65
2022/10/23 05:27:18;;;;;;;5.15;2.22;;;14.00;99.90;;;;;;4991804;28;20121;-65
2022/10/23 05:29:44;;;;;;;5.78;2.00;;;14.00;99.90;;;;;;4991555;28;20566;-65
2022/10/23 05:32:13;;;;;;;4.82;2.22;;;14.00;99.90;;;;;;5007876;28;20299;-65
2022/10/23 05:34:41;;;;;;;5.55;2.03;;;14.00;99.90;;;;;;4991205;28;20462;-65
2022/10/23 05:37:11;;;;;;;5.65;2.10;;;14.10;99.90;;;;;;4992077;28;20044;-65
2022/10/23 05:39:39;;;;;;;9.68;2.22;;;14.10;99.90;;;;;;4991367;28;20030;-65
2022/10/23 05:42:09;;;;;;;6.80;2.00;;;14.20;99.90;;;;;;4991496;28;20456;-65
2022/10/23 05:44:36;;;;;;;4.82;2.05;;;14.20;99.90;;;;;;4991748;28;20369;-65
2022/10/23 05:47:31;;;;;;;2.75;1.45;;;14.20;99.90;;;;;;4973289;28;20031;-65
2022/10/23 05:50:18;;;;;;;5.10;2.08;;;14.30;99.90;;;;;;4991330;28;20499;-65
2022/10/23 05:52:57;;;;;;;6.00;1.88;;;14.30;99.90;;;;;;4992798;28;20391;-65
2022/10/23 05:55:42;;;;;;;6.97;2.20;;;14.30;99.90;;;;;;4992442;28;20077;-66
2022/10/23 05:58:18;;;;;;;5.38;1.80;;;14.30;99.90;;;;;;4991673;28;20034;-65
2022/10/23 06:01:10;;;;;;;5.25;1.73;;;14.30;99.90;;;;;;4992281;28;20112;-65
2022/10/23 06:03:53;;;;;;;5.10;1.80;;;14.30;99.90;;;;;;4991224;28;20038;-65
2022/10/23 06:06:23;;;;;;;6.95;2.30;;;14.40;99.90;;;;;;4992613;28;20034;-65
2022/10/23 06:08:49;;;;;;;8.38;1.90;;;14.40;99.90;;;;;;4991376;28;20038;-65
2022/10/23 06:11:19;;;;;;;7.07;1.80;;;14.40;99.90;;;;;;4991542;28;20026;-67
2022/10/23 06:13:54;;;;;;;5.15;2.00;;;14.40;99.90;;;;;;4976676;28;20138;-65
2022/10/23 06:16:24;;;;;;;7.18;1.80;;;14.40;99.90;;;;;;4992495;28;20027;-65
2022/10/23 06:18:51;;;;;;;4.65;1.77;;;14.40;99.90;;;;;;4991359;28;20181;-67
2022/10/23 06:21:19;;;;;;;7.40;2.20;;;14.40;99.90;;;;;;5007802;28;20042;-67
2022/10/23 06:23:48;;;;;;;4.68;1.85;;;14.40;99.90;;;;;;4991052;28;20027;-67
2022/10/23 06:26:35;;;;;;;5.70;1.63;;;14.50;99.90;;;;;;4991219;28;20089;-68
2022/10/23 06:29:17;;;;;;;5.32;2.08;;;14.50;99.90;;;;;;4991157;28;20118;-67
2022/10/23 06:31:43;;;;;;;6.00;1.98;;;14.50;99.90;;;;;;4991014;28;20026;-67
2022/10/23 06:34:11;;;;;;;5.65;1.70;;;14.50;99.90;;;;;;4990783;28;20040;-67
2022/10/23 06:36:38;;;;;;;7.72;2.00;;;14.40;99.90;;;;;;4990603;28;20399;-67
2022/10/23 06:39:25;;;;;;;3.20;1.80;;;14.50;99.90;;;;;;4990449;28;20479;-67
2022/10/23 06:42:10;;;;;;;3.80;2.05;;;14.50;99.90;;;;;;4990527;28;20514;-67
2022/10/23 06:44:55;;;;;;;6.07;1.90;;;14.50;99.90;;;;;;4991935;28;20082;-67
2022/10/23 06:47:50;;;;;;;3.70;1.80;;;14.50;99.90;;;;;;4994950;28;20400;-65
2022/10/23 06:50:31;;;;;;;5.20;1.88;;;14.50;99.90;;;;;;4995559;28;20442;-65
2022/10/23 06:53:04;;;;;;;8.85;2.00;;;14.40;99.90;;;;;;4994258;28;20499;-65
2022/10/23 06:55:31;;;;;;;5.53;2.83;;;14.40;99.90;;;;;;4994291;28;20034;-65
2022/10/23 06:57:58;;;;;;;6.57;2.30;;;14.30;99.90;;;;;;4995361;28;20266;-65
2022/10/23 07:00:24;;;;;;;7.28;2.28;;;14.30;99.90;;;;;;4994206;28;20124;-65
2022/10/23 07:02:52;;;;;;;6.85;2.13;;;14.30;99.90;;;;;;4994093;28;20388;-65
2022/10/23 07:05:19;;;;;;;7.95;2.80;;;14.30;99.90;;;;;;4995393;28;20117;-65
2022/10/23 07:07:45;;;;;;;9.40;2.50;;;14.30;99.90;;;;;;4994314;28;20426;-65
2022/10/23 07:10:15;;;;;;;4.93;2.60;;;14.30;99.90;;;;;;4994133;28;20144;-65
2022/10/23 07:12:46;;;;;;;6.78;2.42;;;14.30;99.90;;;;;;4994222;28;20030;-65
2022/10/23 07:15:30;;;;;;;5.95;2.38;;;14.30;99.90;;;;;;4995429;28;20034;-65
2022/10/23 07:17:57;;;;;;;5.95;2.22;;;14.40;99.90;;;;;;4993696;28;20507;-68
2022/10/23 07:22:57;;;;;;;4.65;2.13;;;14.40;99.90;;;;;;4988182;28;20412;-86
2022/10/23 07:25:45;;;;;;;6.80;2.50;;;14.40;99.90;;;;;;4971353;28;20030;-85
2022/10/23 07:28:19;;;;;;;8.50;2.90;;;14.50;99.90;;;;;;4974097;28;20062;-86
2022/10/23 07:30:54;;;;;;;6.50;2.10;;;14.50;99.90;;;;;;4994804;28;20061;-86
2022/10/23 07:33:20;;;;;;;9.80;2.67;;;14.50;99.90;;;;;;4993998;28;20054;-86
2022/10/23 07:36:07;;;;;;;9.95;2.67;;;14.50;99.90;;;;;;4995017;28;20046;-86
2022/10/23 07:38:34;;;;;;;7.63;2.38;;;14.50;99.90;;;;;;4993947;28;20034;-86
2022/10/23 07:41:01;;;;;;;7.90;2.90;;;14.50;99.90;;;;;;4993287;28;20041;-86
2022/10/23 07:43:27;;;;;;;8.55;2.50;;;14.50;99.90;;;;;;4993519;28;20038;-86
2022/10/23 07:45:53;;;;;;;6.65;2.90;;;14.60;99.90;;;;;;4993006;28;20097;-86
2022/10/23 07:48:31;;;;;;;6.85;2.65;;;14.60;99.90;;;;;;4993108;28;20121;-86
2022/10/23 07:51:07;;;;;;;6.47;2.72;;;14.60;99.90;;;;;;4993060;28;20114;-86
2022/10/23 07:53:34;;;;;;;8.57;2.80;;;14.60;99.90;;;;;;4993269;28;20033;-86
2022/10/23 07:56:28;;;;;;;3.83;2.55;;;14.70;99.90;;;;;;4992765;28;20045;-85
2022/10/23 07:59:15;;;;;;;6.65;3.13;;;14.80;99.90;;;;;;4993871;28;20399;-86
2022/10/23 08:01:48;;;;;;;6.18;2.70;;;14.80;99.90;;;;;;4992911;28;20041;-85
2022/10/23 08:04:14;;;;;;;6.43;2.58;;;14.90;99.90;;;;;;4993195;28;20500;-85
2022/10/23 08:06:51;;;;;;;10.35;2.60;;;14.90;99.90;;;;;;4992682;28;20030;-86
2022/10/23 08:09:18;;;;;;;5.28;2.17;;;14.90;99.90;;;;;;4992853;28;20031;-86
2022/10/23 08:11:44;;;;;;;3.92;2.00;;;15.00;99.90;;;;;;4992676;28;20039;-85
2022/10/23 08:14:14;;;;;;;6.55;2.17;;;15.00;99.90;;;;;;4992800;28;20044;-86
2022/10/23 08:16:42;;;;;;;5.43;1.70;;;15.00;99.90;;;;;;4992367;28;20034;-86
2022/10/23 08:19:30;;;;;;;5.28;1.55;;;15.10;99.90;;;;;;4992781;28;20034;-86
2022/10/23 08:21:58;;;;;;;3.83;1.67;;;15.10;99.90;;;;;;4992194;28;20038;-86
2022/10/23 08:24:24;;;;;;;5.18;1.70;;;15.20;99.90;;;;;;4992440;28;20027;-86
2022/10/23 08:26:50;;;;;;;5.07;2.05;;;15.30;99.90;;;;;;4992329;28;20065;-86
2022/10/23 08:29:19;;;;;;;4.22;1.92;;;15.30;99.90;;;;;;4992328;28;20030;-86
2022/10/23 08:31:46;;;;;;;5.95;1.80;;;15.40;99.90;;;;;;4993509;28;20096;-86
2022/10/23 08:34:19;;;;;;;9.30;1.70;;;15.50;99.90;;;;;;4992500;28;20033;-85
2022/10/23 08:36:47;;;;;;;4.97;2.05;;;15.50;99.90;;;;;;4992376;28;20109;-85
2022/10/23 08:39:13;;;;;;;4.40;2.10;;;15.50;99.90;;;;;;4992040;28;20503;-86
2022/10/23 08:41:51;;;;;;;4.22;2.20;;;15.60;99.90;;;;;;4992423;28;20031;-86
2022/10/23 08:44:50;;;;;;;5.82;1.92;;;15.60;99.90;;;;;;4992310;28;20038;-86
2022/10/23 08:47:35;;;;;;;5.25;2.10;;;15.70;99.90;;;;;;4991973;28;20068;-86
2022/10/23 08:50:18;;;;;;;5.95;2.50;;;15.70;99.90;;;;;;4993132;28;20485;-86
2022/10/23 08:52:51;;;;;;;6.85;2.40;;;15.80;99.90;;;;;;4992033;28;20034;-86
2022/10/23 08:55:22;;;;;;;5.20;2.15;;;15.80;99.90;;;;;;4992109;28;20034;-86
2022/10/23 08:58:04;;;;;;;4.97;1.67;;;15.80;99.90;;;;;;4993030;28;20031;-86
2022/10/23 09:00:31;;;;;;;3.47;2.15;;;15.80;99.90;;;;;;4991606;28;20038;-85
2022/10/23 09:03:00;;;;;;;4.65;2.05;;;15.80;99.90;;;;;;4992144;28;20056;-85
2022/10/23 09:05:51;;;;;;;5.45;2.00;;;15.80;99.90;;;;;;4993421;28;20061;-86
2022/10/23 09:08:31;;;;;;;4.57;1.50;;;15.90;99.90;;;;;;4992313;28;20049;-86
2022/10/23 09:11:00;;;;;;;4.13;2.00;;;15.90;99.90;;;;;;4991906;28;20423;-85
2022/10/23 09:13:29;;;;;;;5.10;1.50;;;15.90;99.90;;;;;;4993267;28;20034;-86
2022/10/23 09:16:09;;;;;;;6.03;2.17;;;15.90;99.90;;;;;;4992876;28;20440;-86
2022/10/23 09:18:35;;;;;;;3.17;1.67;;;16.00;99.90;;;;;;4993003;28;20141;-86
2022/10/23 09:21:01;;;;;;;3.92;1.70;;;16.00;99.90;;;;;;4993043;28;20030;-85
2022/10/23 09:23:27;;;;;;;2.72;1.33;;;16.00;99.90;;;;;;4993131;28;20074;-86
2022/10/23 09:25:56;;;;;;;2.72;1.35;;;16.10;99.90;;;;;;4992858;28;20415;-86
2022/10/23 09:28:23;;;;;;;;;;;16.00;99.90;;;;;;4993436;28;20403;-86
2022/10/23 09:30:51;;;;;;;5.32;2.25;;;16.00;99.90;;;;;;4992586;28;20353;-85
2022/10/23 09:33:23;;;;;;;5.03;1.70;;;16.10;99.90;;;;;;4991366;28;20115;-86
2022/10/23 09:35:58;;;;;;;3.60;1.60;;;16.00;99.90;;;;;;4991340;28;20030;-86
2022/10/23 09:38:31;;;;;;;2.92;1.30;;;16.10;99.90;;;;;;4991817;28;20045;-86
2022/10/23 09:41:13;;;;;;;3.17;1.60;;;16.10;99.90;;;;;;4991444;28;20498;-85
2022/10/23 09:43:39;;;;;;;5.05;1.50;;;16.20;99.90;;;;;;4992690;28;20065;-86
2022/10/23 09:46:08;;;;;;;4.18;1.50;;;16.20;99.90;;;;;;4991138;28;20030;-86
2022/10/23 09:48:37;;;;;;;2.50;1.23;;;16.20;99.90;;;;;;4991270;28;20125;-86
2022/10/23 09:51:18;;;;;;;4.70;1.88;;;16.30;99.90;;;;;;4991015;28;20506;-87
2022/10/23 09:53:48;;;;;;;5.10;1.85;;;16.30;99.90;;;;;;4992505;28;20096;-86
2022/10/23 09:56:23;;;;;;;2.83;1.50;;;16.30;99.90;;;;;;4991968;28;20030;-86
2022/10/23 09:58:59;;;;;;;3.38;1.58;;;16.40;99.90;;;;;;4991235;28;20046;-86
2022/10/23 10:01:44;;;;;;;5.65;2.15;;;16.40;99.90;;;;;;4991133;28;20050;-86
2022/10/23 10:04:40;;;;;;;4.90;2.70;;;16.30;99.90;;;;;;4976119;28;20476;-86
2022/10/23 10:07:19;;;;;;;7.03;3.20;;;16.30;99.90;;;;;;4992284;28;20041;-86
2022/10/23 10:09:47;;;;;;;6.30;3.08;;;16.40;99.90;;;;;;4990835;28;20170;-86
2022/10/23 10:12:44;;;;;;;5.32;2.25;;;16.30;99.90;;;;;;4992218;28;20110;-86
2022/10/23 10:15:19;;;;;;;5.82;2.53;;;16.30;99.90;;;;;;4990710;28;20274;-86
2022/10/23 10:18:05;;;;;;;4.68;2.13;;;16.30;99.90;;;;;;4992284;28;20030;-86
2022/10/23 10:21:03;;;;;;;6.70;2.60;;;16.30;99.90;;;;;;4990535;28;20026;-86
2022/10/23 10:23:41;;;;;;;5.93;2.17;;;16.20;99.90;;;;;;4992334;28;20069;-86
2022/10/23 10:26:40;;;;;;;3.92;2.08;;;16.20;99.90;;;;;;4990602;28;20054;-86
2022/10/23 10:29:12;;;;;;;;;;;16.20;99.90;;;;;;4992162;28;20030;-86
2022/10/23 10:32:30;;;;;;;5.63;2.63;;;16.20;99.90;;;;;;4991720;28;19914;-86
2022/10/23 10:35:15;;;;;;;6.45;2.80;;;16.20;99.90;;;;;;4991730;28;20118;-86
2022/10/23 10:38:11;;;;;;;6.07;3.13;;;16.20;99.90;;;;;;4991635;28;20395;-86
2022/10/23 10:40:44;;;;;;;7.40;3.50;;;16.20;99.90;;;;;;4991639;28;20097;-86
2022/10/23 10:43:16;;;;;;;8.07;3.88;;;16.20;99.90;;;;;;4990509;28;20027;-86
2022/10/23 10:45:48;;;;;;;7.80;3.88;;;16.30;99.90;;;;;;4991748;28;20396;-86
2022/10/23 10:48:26;;;;;;;6.68;4.03;;;16.30;99.90;;;;;;4991703;28;20105;-86
2022/10/23 10:51:23;;;;;;;8.27;3.63;;;16.30;99.90;;;;;;4990606;28;20501;-86
2022/10/23 10:53:51;;;;;;;6.57;3.42;;;16.30;99.90;;;;;;4990590;28;20034;-86
2022/10/23 10:56:19;;;;;;;8.98;3.40;;;16.30;99.90;;;;;;4991522;28;20118;-86
2022/10/23 10:58:54;;;;;;;6.07;2.90;;;16.30;99.90;;;;;;4991441;28;20026;-86
2022/10/23 11:01:33;;;;;;;5.47;2.38;;;16.30;99.90;;;;;;4991529;28;20030;-86
2022/10/23 11:04:21;;;;;;;5.78;2.20;;;16.40;99.90;;;;;;4990538;28;20037;-86
2022/10/23 11:06:51;;;;;;;4.07;2.20;;;16.40;99.90;;;;;;4991331;28;20061;-86
2022/10/23 11:09:23;;;;;;;4.97;1.83;;;16.40;99.90;;;;;;4991180;28;20475;-86
2022/10/23 11:11:49;;;;;;;4.38;2.00;;;16.40;99.90;;;;;;4990100;28;20026;-86
2022/10/23 11:14:24;;;;;;;6.35;2.42;;;16.40;99.90;;;;;;4990254;28;20030;-86
2022/10/23 11:16:54;;;;;;;3.95;2.00;;;16.40;99.90;;;;;;4990222;28;20085;-86
2022/10/23 11:19:38;;;;;;;6.32;2.08;;;16.50;99.90;;;;;;4991365;28;20027;-86
2022/10/23 11:22:27;;;;;;;2.80;1.60;;;16.60;99.90;;;;;;4990994;28;20026;-86
2022/10/23 11:25:03;;;;;;;3.97;1.58;;;16.60;99.90;;;;;;4989792;28;20035;-86
2022/10/23 11:27:47;;;;;;;3.38;1.77;;;16.60;99.90;;;;;;4991218;28;20105;-86
2022/10/23 11:30:28;;;;;;;4.03;2.00;;;16.60;99.90;;;;;;4991167;28;20617;-86
2022/10/23 11:33:03;;;;;;;5.88;2.55;;;16.70;99.90;;;;;;4994125;28;20034;-86
2022/10/23 11:35:52;;;;;;;6.40;2.30;;;16.70;99.90;;;;;;4994906;28;20031;-86
2022/10/23 11:38:25;;;;;;;8.70;2.65;;;16.80;99.90;;;;;;4995025;28;20109;-86
2022/10/23 11:40:54;;;;;;;5.28;2.22;;;16.80;99.90;;;;;;4993350;28;20062;-86
2022/10/23 11:43:46;;;;;;;4.38;1.60;;;16.80;99.90;;;;;;4993517;28;20058;-86
2022/10/23 11:46:32;;;;;;;3.13;1.48;;;16.90;99.90;;;;;;4994480;28;20485;-86
2022/10/23 11:49:01;;;;;;;4.25;2.00;;;17.00;99.90;;;;;;4994528;28;20118;-86
2022/10/23 11:51:35;;;;;;;4.15;1.80;;;17.00;99.90;;;;;;4993505;28;20034;-86
2022/10/23 11:54:23;;;;;;;5.90;2.45;;;16.90;99.90;;;;;;4994575;28;20061;-86
2022/10/23 11:57:07;;;;;;;6.50;1.70;;;16.90;99.90;;;;;;4993133;28;20035;-86
2022/10/23 11:59:35;;;;;;;3.70;1.60;;;16.90;99.90;;;;;;4994607;28;20085;-86
2022/10/23 12:02:21;;;;;;;5.20;1.83;;;16.90;99.90;;;;;;4993283;28;20025;-86
2022/10/23 12:04:50;;;;;;;2.03;1.27;;;16.90;99.90;;;;;;4986174;28;20109;-86
2022/10/23 12:07:27;;;;;;;3.65;1.42;;;16.90;99.90;;;;;;4994053;28;20411;-85
2022/10/23 12:09:58;;;;;;;3.40;1.70;;;17.00;99.90;;;;;;4993311;28;20116;-86
2022/10/23 12:12:30;;;;;;;4.20;1.70;;;17.00;99.90;;;;;;4992980;28;20030;-86
2022/10/23 12:15:17;;;;;;;3.45;1.33;;;17.10;99.90;;;;;;4992853;28;20037;-86
2022/10/23 12:17:44;;;;;;;5.07;1.67;;;17.20;99.90;;;;;;4994398;28;20029;-86
2022/10/23 12:20:22;;;;;;;4.60;1.40;;;17.30;99.90;;;;;;4992553;28;20026;-85
2022/10/23 12:23:02;;;;;;;3.55;1.23;;;17.40;99.90;;;;;;4992741;28;20030;-85
2022/10/23 12:25:27;;;;;;;2.90;1.38;;;17.40;99.90;;;;;;4994142;28;20117;-85
2022/10/23 12:28:34;;;;;;;2.97;1.60;;;17.50;99.90;;;;;;4993955;28;20109;-85
2022/10/23 12:31:43;;;;;;;3.50;1.67;;;17.50;99.90;;;;;;4984167;28;20073;-85
2022/10/23 12:34:39;;;;;;;4.53;1.52;;;17.60;99.90;;;;;;4992803;28;20058;-85
2022/10/23 12:37:24;;;;;;;4.00;1.50;;;17.70;99.90;;;;;;4993743;28;20050;-84
2022/10/23 12:39:54;;;;;;;6.40;2.83;;;17.70;99.90;;;;;;4993836;28;20031;-85
2022/10/23 12:42:26;;;;;;;4.72;1.83;;;17.70;99.90;;;;;;4993741;28;20121;-85
2022/10/23 12:45:19;;;;;;;6.15;3.10;;;17.70;99.90;;;;;;4992969;28;20037;-85
2022/10/23 12:47:46;;;;;;;5.88;2.22;;;17.80;99.90;;;;;;4992246;28;20047;-85
2022/10/23 12:50:20;;;;;;;4.82;1.70;;;17.80;99.90;;;;;;4993662;28;20030;-84
2022/10/23 12:52:51;;;;;;;4.53;1.35;;;17.80;99.90;;;;;;4992579;28;20035;-84
2022/10/23 12:55:17;;;;;;;5.20;1.33;;;17.90;99.90;;;;;;4993743;28;20054;-85
2022/10/23 12:57:44;;;;;;;4.68;1.50;;;17.80;99.90;;;;;;4992440;28;20390;-85
2022/10/23 13:00:18;;;;;;;3.00;1.40;;;17.90;99.90;;;;;;4993541;28;20116;-85
2022/10/23 13:02:44;;;;;;;4.60;1.33;;;17.90;99.90;;;;;;4992589;28;20030;-85
2022/10/23 13:05:19;;;;;;;4.50;1.60;;;17.80;99.90;;;;;;4993960;28;20045;-85
2022/10/23 13:07:48;;;;;;;4.53;1.50;;;17.80;99.90;;;;;;4992013;28;20026;-85
2022/10/23 13:10:19;;;;;;;8.77;1.95;;;17.90;99.90;;;;;;4991986;28;20054;-85
2022/10/23 13:13:03;;;;;;;2.85;1.52;;;17.90;99.90;;;;;;4992260;28;20157;-85
2022/10/23 13:15:42;;;;;;;5.13;1.67;;;17.80;99.90;;;;;;4993215;28;20042;-85
2022/10/23 13:18:10;;;;;;;4.72;1.75;;;17.80;99.90;;;;;;4993740;28;20038;-85
2022/10/23 13:23:34;;;;;;;5.85;1.60;;;17.80;99.90;;;;;;5139361;22;20053;-68
2022/10/23 13:26:20;;;;;;;5.28;2.00;;;17.80;99.90;;;;;;5034745;28;20032;-67
2022/10/23 13:28:46;;;;;;;4.68;1.80;;;17.80;99.90;;;;;;5052576;28;20071;-68
2022/10/23 13:31:12;;;;;;;3.95;2.00;;;17.80;99.90;;;;;;5052527;28;20052;-67
2022/10/23 13:33:52;;;;;;;4.85;2.05;;;17.80;99.90;;;;;;5052303;28;20029;-67